Terminal Aerodrome Forecast
Issued by NWS Spokane, WA

Home | Current Version | Previous Version | Text Only | Print | Product List | Glossary On
Versions: 1 2 3 4 5 6 7 8 9 10 11 12 13 14 15 16 17 18 19 20 21 22 23 24 25 26 27 28 29 30 31
000
FTUS46 KOTX 210520
TAFEAT
TAF
KEAT 210520Z 2106/2206 35007KT P6SM BKN200
     FM211200 30006KT P6SM -RA OVC040
     FM211500 15003KT P6SM -RA BKN020 OVC035
     FM212300 13004KT P6SM -SHRA OVC050=

USA.gov is the U.S. government's official web portal to all federal, state and local government web resources and services.